createdAt,value
2018-08-11T00:00:48.262Z,8.00
2018-08-11T00:01:48.263Z,8.00
2018-08-11T00:02:48.295Z,8.00
2018-08-11T00:03:48.265Z,8.00
2018-08-11T00:04:48.274Z,8.00
2018-08-11T00:05:48.285Z,8.00
2018-08-11T00:06:48.291Z,8.00
2018-08-11T00:07:48.274Z,8.00
2018-08-11T00:08:48.272Z,8.00
2018-08-11T00:09:48.277Z,8.00
2018-08-11T00:10:48.292Z,8.00
2018-08-11T00:11:48.290Z,8.00
2018-08-11T00:12:48.290Z,8.00
2018-08-11T00:13:48.301Z,8.00
2018-08-11T00:14:48.286Z,8.00
2018-08-11T00:15:48.288Z,8.00
2018-08-11T00:16:48.286Z,8.00
2018-08-11T00:17:48.289Z,8.00
2018-08-11T00:18:48.290Z,8.00
2018-08-11T00:19:48.294Z,8.00
2018-08-11T00:20:48.294Z,8.00
2018-08-11T00:21:48.296Z,8.00
2018-08-11T00:22:49.082Z,8.00
2018-08-11T00:23:48.306Z,8.00
2018-08-11T00:24:48.313Z,8.00
2018-08-11T00:25:48.303Z,8.00
2018-08-11T00:26:48.323Z,8.00
2018-08-11T00:27:48.307Z,8.00
2018-08-11T00:28:48.308Z,8.00
2018-08-11T00:29:48.311Z,8.00
2018-08-11T00:30:48.315Z,8.00
2018-08-11T00:31:48.315Z,8.00
2018-08-11T00:32:48.316Z,8.00
2018-08-11T00:33:48.325Z,8.00
2018-08-11T00:34:48.321Z,8.00
2018-08-11T00:35:48.322Z,8.00
2018-08-11T00:36:48.322Z,8.00
2018-08-11T00:37:48.324Z,8.00
2018-08-11T00:38:48.330Z,8.00
2018-08-11T00:39:48.330Z,8.00
2018-08-11T00:40:48.330Z,8.00
2018-08-11T00:41:48.332Z,8.00
2018-08-11T00:42:48.336Z,8.00
2018-08-11T00:43:48.337Z,8.00
2018-08-11T00:44:48.335Z,8.00
2018-08-11T00:45:48.338Z,8.00
2018-08-11T00:46:48.370Z,8.00
2018-08-11T00:47:48.355Z,8.00
2018-08-11T00:48:49.719Z,8.00
2018-08-11T00:49:48.345Z,8.00
2018-08-11T00:50:48.351Z,8.00
2018-08-11T00:51:48.349Z,8.00
2018-08-11T00:52:48.351Z,8.00
2018-08-11T00:53:48.354Z,8.00
2018-08-11T00:54:48.354Z,8.00
2018-08-11T00:55:48.356Z,8.00
2018-08-11T00:56:48.357Z,8.00
2018-08-11T00:57:48.379Z,8.00
2018-08-11T00:58:48.364Z,8.00
2018-08-11T00:59:48.370Z,8.00
2018-08-11T01:00:48.365Z,8.00
2018-08-11T01:01:48.372Z,8.00
2018-08-11T01:02:48.370Z,8.00
2018-08-11T01:03:48.422Z,8.00
2018-08-11T01:04:48.373Z,8.00
2018-08-11T01:05:48.447Z,8.00
2018-08-11T01:06:48.376Z,4.00
2018-08-11T01:07:48.377Z,8.00
2018-08-11T01:08:48.386Z,4.00
2018-08-11T01:09:48.382Z,4.00
2018-08-11T01:10:48.414Z,4.00
2018-08-11T01:11:48.390Z,4.00
2018-08-11T01:12:48.387Z,4.00
2018-08-11T01:13:48.387Z,4.00
2018-08-11T01:14:48.388Z,4.00
2018-08-11T01:15:48.396Z,4.00
2018-08-11T01:16:48.399Z,4.00
2018-08-11T01:17:48.394Z,4.00
2018-08-11T01:18:48.395Z,4.00
2018-08-11T01:19:48.401Z,4.00
2018-08-11T01:20:48.397Z,4.00
2018-08-11T01:21:48.401Z,4.00
2018-08-11T01:22:48.416Z,4.00
2018-08-11T01:23:48.409Z,4.00
2018-08-11T01:24:48.405Z,4.00
2018-08-11T01:25:48.411Z,4.00
2018-08-11T01:26:48.415Z,4.00
2018-08-11T01:27:49.537Z,4.00
2018-08-11T01:28:48.412Z,4.00
2018-08-11T01:29:48.414Z,4.00
2018-08-11T01:30:48.417Z,4.00
2018-08-11T01:31:48.421Z,4.00
2018-08-11T01:32:48.419Z,4.00
2018-08-11T01:33:48.421Z,4.00
2018-08-11T01:34:48.424Z,4.00
2018-08-11T01:35:48.427Z,4.00
2018-08-11T01:36:48.425Z,4.00
2018-08-11T01:37:48.427Z,4.00
2018-08-11T01:38:48.428Z,4.00
2018-08-11T01:39:48.431Z,4.00
2018-08-11T01:40:48.431Z,4.00
2018-08-11T01:41:48.435Z,4.00
2018-08-11T01:42:48.447Z,4.00
2018-08-11T01:43:48.442Z,4.00
2018-08-11T01:44:48.437Z,4.00
2018-08-11T01:45:48.442Z,4.00
2018-08-11T01:46:48.441Z,4.00
2018-08-11T01:47:49.991Z,4.00
2018-08-11T01:48:48.444Z,4.00
2018-08-11T01:49:48.448Z,4.00
2018-08-11T01:50:48.448Z,4.00
2018-08-11T01:51:48.452Z,4.00
2018-08-11T01:52:48.451Z,4.00
2018-08-11T01:53:48.454Z,4.00
2018-08-11T01:54:48.458Z,4.00
2018-08-11T01:55:48.458Z,4.00
2018-08-11T01:56:48.458Z,4.00
2018-08-11T01:57:48.464Z,4.00
2018-08-11T01:58:48.461Z,4.00
2018-08-11T01:59:48.463Z,4.00
2018-08-11T02:00:48.465Z,4.00
2018-08-11T02:01:48.468Z,4.00
2018-08-11T02:02:48.469Z,4.00
2018-08-11T02:03:48.482Z,4.00
2018-08-11T02:04:48.476Z,4.00
2018-08-11T02:05:48.473Z,4.00
2018-08-11T02:06:48.475Z,4.00
2018-08-11T02:07:48.476Z,4.00
2018-08-11T02:08:48.480Z,4.00
2018-08-11T02:09:48.484Z,4.00
2018-08-11T02:10:48.484Z,4.00
2018-08-11T02:11:48.488Z,4.00
2018-08-11T02:12:48.487Z,4.00
2018-08-11T02:13:48.491Z,4.00
2018-08-11T02:14:48.497Z,4.00
2018-08-11T02:15:48.497Z,4.00
2018-08-11T02:16:48.494Z,8.00
2018-08-11T02:17:48.497Z,4.00
2018-08-11T02:18:48.499Z,4.00
2018-08-11T02:19:48.498Z,4.00
2018-08-11T02:20:48.497Z,4.00
2018-08-11T02:21:48.498Z,4.00
2018-08-11T02:22:48.503Z,4.00
2018-08-11T02:23:48.502Z,4.00
2018-08-11T02:24:48.585Z,4.00
2018-08-11T02:25:48.678Z,4.00
2018-08-11T02:26:48.507Z,4.00
2018-08-11T02:27:48.509Z,4.00
2018-08-11T02:28:48.509Z,4.00
2018-08-11T02:29:48.514Z,4.00
2018-08-11T02:30:48.513Z,4.00
2018-08-11T02:31:48.514Z,4.00
2018-08-11T02:32:48.516Z,8.00
2018-08-11T02:33:48.516Z,4.00
2018-08-11T02:34:48.518Z,4.00
2018-08-11T02:35:48.522Z,4.00
2018-08-11T02:36:48.523Z,4.00
2018-08-11T02:37:48.522Z,4.00
2018-08-11T02:38:48.525Z,4.00
2018-08-11T02:39:48.531Z,4.00
2018-08-11T02:40:48.528Z,4.00
2018-08-11T02:41:48.533Z,4.00
2018-08-11T02:42:48.529Z,4.00
2018-08-11T02:43:48.532Z,4.00
2018-08-11T02:44:48.549Z,4.00
2018-08-11T02:45:48.533Z,4.00
2018-08-11T02:46:48.536Z,4.00
2018-08-11T02:47:48.537Z,4.00
2018-08-11T02:48:48.538Z,4.00
2018-08-11T02:49:48.540Z,4.00
2018-08-11T02:50:48.541Z,4.00
2018-08-11T02:51:48.545Z,4.00
2018-08-11T02:52:48.544Z,4.00
2018-08-11T02:53:48.547Z,4.00
2018-08-11T02:54:48.584Z,4.00
2018-08-11T02:55:48.550Z,4.00
2018-08-11T02:56:49.076Z,4.00
2018-08-11T02:57:48.553Z,4.00
2018-08-11T02:58:48.554Z,4.00
2018-08-11T02:59:48.562Z,4.00
2018-08-11T03:00:48.559Z,8.00
2018-08-11T03:01:48.560Z,4.00
2018-08-11T03:02:48.561Z,4.00
2018-08-11T03:03:48.563Z,4.00
2018-08-11T03:04:48.563Z,4.00
2018-08-11T03:05:48.565Z,4.00
2018-08-11T03:06:48.566Z,4.00
2018-08-11T03:07:48.571Z,4.00
2018-08-11T03:08:48.570Z,4.00
2018-08-11T03:09:48.577Z,4.00
2018-08-11T03:10:48.573Z,4.00
2018-08-11T03:11:48.574Z,8.00
2018-08-11T03:12:48.574Z,8.00
2018-08-11T03:13:48.580Z,8.00
2018-08-11T03:14:48.578Z,8.00
2018-08-11T03:15:48.583Z,8.00
2018-08-11T03:16:48.582Z,8.00
2018-08-11T03:17:48.585Z,8.00
2018-08-11T03:18:48.587Z,8.00
2018-08-11T03:19:48.607Z,8.00
2018-08-11T03:20:48.591Z,8.00
2018-08-11T03:21:48.588Z,8.00
2018-08-11T03:22:48.591Z,8.00
2018-08-11T03:23:48.596Z,8.00
2018-08-11T03:24:48.594Z,8.00
2018-08-11T03:25:48.594Z,4.00
2018-08-11T03:26:48.596Z,4.00
2018-08-11T03:27:49.454Z,8.00
2018-08-11T03:28:48.603Z,8.00
2018-08-11T03:29:48.608Z,8.00
2018-08-11T03:30:48.604Z,8.00
2018-08-11T03:31:48.609Z,8.00
2018-08-11T03:32:48.607Z,8.00
2018-08-11T03:33:48.607Z,8.00
2018-08-11T03:34:48.614Z,8.00
2018-08-11T03:35:48.610Z,12.00
2018-08-11T03:36:48.610Z,12.00
2018-08-11T03:37:48.612Z,8.00
2018-08-11T03:38:48.619Z,12.00
2018-08-11T03:39:48.615Z,12.00
2018-08-11T03:40:48.615Z,16.00
2018-08-11T03:41:48.616Z,16.00
2018-08-11T03:42:48.619Z,16.00
2018-08-11T03:43:48.620Z,20.00
2018-08-11T03:44:48.622Z,20.00
2018-08-11T03:45:48.622Z,24.00
2018-08-11T03:46:48.623Z,24.00
2018-08-11T03:47:48.628Z,24.00
2018-08-11T03:48:48.628Z,28.00
2018-08-11T03:49:48.628Z,32.00
2018-08-11T03:50:48.629Z,36.00
2018-08-11T03:51:48.630Z,40.00
2018-08-11T03:52:48.641Z,40.00
2018-08-11T03:53:48.632Z,48.00
2018-08-11T03:54:48.634Z,48.00
2018-08-11T03:55:48.636Z,56.00
2018-08-11T03:56:48.638Z,60.00
2018-08-11T03:57:48.638Z,68.00
2018-08-11T03:58:48.640Z,72.00
2018-08-11T03:59:48.640Z,72.00
2018-08-11T04:00:48.644Z,76.00
2018-08-11T04:01:48.643Z,80.00
2018-08-11T04:02:48.644Z,84.00
2018-08-11T04:03:48.646Z,96.00
2018-08-11T04:04:48.649Z,100.00
2018-08-11T04:05:48.647Z,108.00
2018-08-11T04:06:48.650Z,124.00
2018-08-11T04:07:48.652Z,132.00
2018-08-11T04:08:48.654Z,140.00
2018-08-11T04:09:48.653Z,156.00
2018-08-11T04:10:48.657Z,164.00
2018-08-11T04:11:48.656Z,172.00
2018-08-11T04:12:48.657Z,184.00
2018-08-11T04:13:48.659Z,196.00
2018-08-11T04:14:48.660Z,204.00
2018-08-11T04:15:48.674Z,216.00
2018-08-11T04:16:48.665Z,232.00
2018-08-11T04:17:48.664Z,244.00
2018-08-11T04:18:48.665Z,252.00
2018-08-11T04:19:48.667Z,268.00
2018-08-11T04:20:48.668Z,276.00
2018-08-11T04:21:48.672Z,292.00
2018-08-11T04:22:48.670Z,308.00
2018-08-11T04:23:48.671Z,320.00
2018-08-11T04:24:48.672Z,340.00
2018-08-11T04:25:48.677Z,348.00
2018-08-11T04:26:48.675Z,344.00
2018-08-11T04:27:48.677Z,356.00
2018-08-11T04:28:48.677Z,372.00
2018-08-11T04:29:48.678Z,416.00
2018-08-11T04:30:48.683Z,456.00
2018-08-11T04:31:48.684Z,480.00
2018-08-11T04:32:48.683Z,516.00
2018-08-11T04:33:48.686Z,552.00
2018-08-11T04:34:48.687Z,584.00
2018-08-11T04:35:48.688Z,620.00
2018-08-11T04:36:48.686Z,660.00
2018-08-11T04:37:48.689Z,704.00
2018-08-11T04:38:48.690Z,772.00
2018-08-11T04:39:48.693Z,892.00
2018-08-11T04:40:48.693Z,1052.00
2018-08-11T04:41:48.695Z,1052.00
2018-08-11T04:42:48.696Z,972.00
2018-08-11T04:43:48.698Z,1008.00
2018-08-11T04:44:48.698Z,1332.00
2018-08-11T04:45:48.700Z,1364.00
2018-08-11T04:46:48.700Z,1412.00
2018-08-11T04:47:48.703Z,1808.00
2018-08-11T04:48:48.703Z,2012.00
2018-08-11T04:49:48.704Z,2040.00
2018-08-11T04:50:48.709Z,2396.00
2018-08-11T04:51:48.707Z,3204.00
2018-08-11T04:52:48.708Z,3688.00
2018-08-11T04:53:48.711Z,3264.00
2018-08-11T04:54:48.713Z,3340.00
2018-08-11T04:55:48.714Z,3652.00
2018-08-11T04:56:48.715Z,2768.00
2018-08-11T04:57:48.718Z,2320.00
2018-08-11T04:58:48.719Z,2480.00
2018-08-11T04:59:48.720Z,2612.00
2018-08-11T05:00:48.747Z,3084.00
2018-08-11T05:01:48.723Z,3828.00
2018-08-11T05:02:48.729Z,3584.00
2018-08-11T05:03:48.729Z,2632.00
2018-08-11T05:04:48.729Z,2376.00
2018-08-11T05:05:48.731Z,2012.00
2018-08-11T05:06:48.733Z,1804.00
2018-08-11T05:07:48.738Z,2324.00
2018-08-11T05:08:48.738Z,1728.00
2018-08-11T05:09:48.739Z,884.00
2018-08-11T05:10:48.746Z,1028.00
2018-08-11T05:11:48.744Z,1372.00
2018-08-11T05:12:48.745Z,784.00
2018-08-11T05:13:48.747Z,720.00
2018-08-11T05:14:48.752Z,744.00
2018-08-11T05:15:48.756Z,780.00
2018-08-11T05:16:48.758Z,836.00
2018-08-11T05:17:48.757Z,900.00
2018-08-11T05:18:48.758Z,972.00
2018-08-11T05:19:48.784Z,1028.00
2018-08-11T05:20:48.763Z,1056.00
2018-08-11T05:21:48.765Z,1084.00
2018-08-11T05:22:48.768Z,1132.00
2018-08-11T05:23:48.770Z,1160.00
2018-08-11T05:24:48.770Z,1180.00
2018-08-11T05:25:48.772Z,1188.00
2018-08-11T05:26:48.775Z,1200.00
2018-08-11T05:27:48.777Z,1200.00
2018-08-11T05:28:48.786Z,1196.00
2018-08-11T05:29:48.783Z,1172.00
2018-08-11T05:30:48.998Z,1172.00
2018-08-11T05:31:48.795Z,1180.00
2018-08-11T05:32:48.804Z,1204.00
2018-08-11T05:33:48.791Z,1252.00
2018-08-11T05:34:48.793Z,1272.00
2018-08-11T05:35:48.794Z,1280.00
2018-08-11T05:36:48.795Z,1284.00
2018-08-11T05:37:48.799Z,1308.00
2018-08-11T05:38:48.800Z,1340.00
2018-08-11T05:39:48.802Z,1404.00
2018-08-11T05:40:48.803Z,1468.00
2018-08-11T05:41:48.814Z,1532.00
2018-08-11T05:42:48.809Z,1600.00
2018-08-11T05:43:48.810Z,1648.00
2018-08-11T05:44:48.811Z,1720.00
2018-08-11T05:45:48.817Z,1772.00
2018-08-11T05:46:48.817Z,1792.00
2018-08-11T05:47:48.818Z,1808.00
2018-08-11T05:48:48.819Z,1900.00
2018-08-11T05:49:48.820Z,1968.00
2018-08-11T05:50:48.823Z,2016.00
2018-08-11T05:51:48.826Z,1996.00
2018-08-11T05:52:48.827Z,2064.00
2018-08-11T05:53:48.830Z,2240.00
2018-08-11T05:54:48.832Z,5212.00
2018-08-11T05:55:48.837Z,2372.00
2018-08-11T05:56:48.835Z,2380.00
2018-08-11T05:57:48.837Z,2668.00
2018-08-11T05:58:48.840Z,2556.00
2018-08-11T05:59:48.843Z,2840.00
2018-08-11T06:00:48.847Z,2592.00
2018-08-11T06:01:49.390Z,2512.00
2018-08-11T06:02:48.856Z,2528.00
2018-08-11T06:03:48.856Z,3108.00
2018-08-11T06:04:48.856Z,3668.00
2018-08-11T06:05:48.859Z,2824.00
2018-08-11T06:06:48.858Z,2752.00
2018-08-11T06:07:48.863Z,2796.00
2018-08-11T06:08:48.863Z,2772.00
2018-08-11T06:09:48.864Z,2864.00
2018-08-11T06:10:48.867Z,3368.00
2018-08-11T06:11:48.870Z,3044.00
2018-08-11T06:12:48.879Z,2976.00
2018-08-11T06:13:48.875Z,3360.00
2018-08-11T06:14:48.877Z,6620.00
2018-08-11T06:15:48.881Z,3360.00
2018-08-11T06:16:48.881Z,2620.00
2018-08-11T06:17:48.885Z,2592.00
2018-08-11T06:18:48.887Z,2936.00
2018-08-11T06:19:48.890Z,3468.00
2018-08-11T06:20:48.895Z,3368.00
2018-08-11T06:21:48.895Z,3544.00
2018-08-11T06:22:48.899Z,3236.00
2018-08-11T06:23:48.901Z,4000.00
2018-08-11T06:24:48.902Z,5996.00
2018-08-11T06:25:48.906Z,2968.00
2018-08-11T06:26:48.907Z,2940.00
2018-08-11T06:27:48.910Z,3644.00
2018-08-11T06:28:48.912Z,4372.00
2018-08-11T06:29:48.915Z,5256.00
2018-08-11T06:30:48.917Z,3796.00
2018-08-11T06:31:49.009Z,3332.00
2018-08-11T06:32:49.790Z,5388.00
2018-08-11T06:33:48.931Z,3932.00
2018-08-11T06:34:48.936Z,3512.00
2018-08-11T06:35:48.949Z,4144.00
2018-08-11T06:36:48.934Z,3564.00
2018-08-11T06:37:48.937Z,3484.00
2018-08-11T06:38:48.940Z,3508.00
2018-08-11T06:39:48.943Z,3424.00
2018-08-11T06:40:49.138Z,3632.00
2018-08-11T06:41:48.950Z,3748.00
2018-08-11T06:42:48.953Z,3620.00
2018-08-11T06:43:48.954Z,3488.00
2018-08-11T06:44:48.956Z,3508.00
2018-08-11T06:45:48.959Z,3512.00
2018-08-11T06:46:49.041Z,3496.00
2018-08-11T06:47:48.968Z,3452.00
2018-08-11T06:48:48.973Z,3456.00
2018-08-11T06:49:48.971Z,3516.00
2018-08-11T06:50:48.979Z,3564.00
2018-08-11T06:51:48.977Z,3592.00
2018-08-11T06:52:48.981Z,3600.00
2018-08-11T06:53:48.988Z,3680.00
2018-08-11T06:54:48.990Z,3632.00
2018-08-11T06:55:48.997Z,3644.00
2018-08-11T06:56:48.991Z,3620.00
2018-08-11T06:57:48.996Z,3532.00
2018-08-11T06:58:49.000Z,3472.00
2018-08-11T06:59:49.005Z,3484.00
2018-08-11T07:00:49.006Z,3480.00
2018-08-11T07:01:49.007Z,3384.00
2018-08-11T07:02:49.010Z,3348.00
2018-08-11T07:03:49.016Z,3360.00
2018-08-11T07:04:49.018Z,3372.00
2018-08-11T07:05:49.028Z,3364.00
2018-08-11T07:06:49.036Z,3368.00
2018-08-11T07:07:49.029Z,3332.00
2018-08-11T07:08:49.030Z,3264.00
2018-08-11T07:09:49.034Z,3212.00
2018-08-11T07:10:49.037Z,3192.00
2018-08-11T07:11:49.040Z,3228.00
2018-08-11T07:12:49.043Z,3228.00
2018-08-11T07:13:49.046Z,3232.00
2018-08-11T07:14:49.050Z,3260.00
2018-08-11T07:15:49.053Z,3296.00
2018-08-11T07:16:49.068Z,3324.00
2018-08-11T07:17:49.063Z,3336.00
2018-08-11T07:18:49.065Z,3368.00
2018-08-11T07:19:49.067Z,3308.00
2018-08-11T07:20:49.070Z,3324.00
2018-08-11T07:21:49.072Z,3432.00
2018-08-11T07:22:49.123Z,3468.00
2018-08-11T07:23:49.080Z,3500.00
2018-08-11T07:24:49.083Z,3492.00
2018-08-11T07:25:49.087Z,3476.00
2018-08-11T07:26:49.091Z,3524.00
2018-08-11T07:27:49.094Z,3520.00
2018-08-11T07:28:49.099Z,3540.00
2018-08-11T07:29:49.101Z,3576.00
2018-08-11T07:30:49.107Z,3572.00
2018-08-11T07:31:49.108Z,3548.00
2018-08-11T07:32:49.110Z,3504.00
2018-08-11T07:33:49.119Z,3492.00
2018-08-11T07:34:49.119Z,3504.00
2018-08-11T07:35:49.125Z,3496.00
2018-08-11T07:36:49.125Z,3540.00
2018-08-11T07:37:49.129Z,3532.00
2018-08-11T07:38:49.136Z,3684.00
2018-08-11T07:39:49.137Z,3788.00
2018-08-11T07:40:49.152Z,3912.00
2018-08-11T07:41:49.172Z,3964.00
2018-08-11T07:42:49.147Z,3984.00
2018-08-11T07:43:49.157Z,4020.00
2018-08-11T07:44:49.154Z,4044.00
2018-08-11T07:45:49.157Z,4080.00
2018-08-11T07:46:49.163Z,4056.00
2018-08-11T07:47:49.170Z,3988.00
2018-08-11T07:48:49.168Z,3924.00
2018-08-11T07:49:49.172Z,3888.00
2018-08-11T07:50:49.178Z,3812.00
2018-08-11T07:51:49.188Z,3824.00
2018-08-11T07:52:49.182Z,3768.00
2018-08-11T07:53:49.187Z,3804.00
2018-08-11T07:54:49.192Z,3760.00
2018-08-11T07:55:49.236Z,3664.00
2018-08-11T07:56:49.200Z,3504.00
2018-08-11T07:57:49.202Z,3472.00
2018-08-11T07:58:49.206Z,3260.00
2018-08-11T07:59:49.210Z,3136.00
2018-08-11T08:00:49.216Z,2920.00
2018-08-11T08:01:49.223Z,2748.00
2018-08-11T08:02:49.221Z,2612.00
2018-08-11T08:03:49.239Z,2516.00
2018-08-11T08:04:49.230Z,2376.00
2018-08-11T08:05:49.233Z,2256.00
2018-08-11T08:06:49.237Z,2220.00
2018-08-11T08:07:49.241Z,2296.00
2018-08-11T08:08:49.244Z,2284.00
2018-08-11T08:09:49.248Z,2316.00
2018-08-11T08:10:49.254Z,2272.00
2018-08-11T08:11:49.256Z,2144.00
2018-08-11T08:12:49.259Z,2036.00
2018-08-11T08:13:49.424Z,2008.00
2018-08-11T08:14:49.268Z,2044.00
2018-08-11T08:15:49.273Z,2024.00
2018-08-11T08:16:49.274Z,2036.00
2018-08-11T08:17:49.277Z,2096.00
2018-08-11T08:18:49.283Z,2148.00
2018-08-11T08:19:49.287Z,2156.00
2018-08-11T08:20:49.291Z,2184.00
2018-08-11T08:21:49.297Z,2244.00
2018-08-11T08:22:49.296Z,2316.00
2018-08-11T08:23:49.301Z,2412.00
2018-08-11T08:24:49.305Z,2644.00
2018-08-11T08:25:49.329Z,2980.00
2018-08-11T08:26:49.350Z,3252.00
2018-08-11T08:27:49.315Z,3484.00
2018-08-11T08:28:49.317Z,3740.00
2018-08-11T08:29:49.323Z,3760.00
2018-08-11T08:30:49.325Z,3828.00
2018-08-11T08:31:49.330Z,4108.00
2018-08-11T08:32:49.334Z,4040.00
2018-08-11T08:33:49.366Z,3932.00
2018-08-11T08:34:49.345Z,4112.00
2018-08-11T08:35:49.544Z,3996.00
2018-08-11T08:36:49.350Z,3664.00
2018-08-11T08:37:49.352Z,3704.00
2018-08-11T08:38:49.356Z,3712.00
2018-08-11T08:39:49.362Z,3964.00
2018-08-11T08:40:49.366Z,4088.00
2018-08-11T08:41:49.392Z,4060.00
2018-08-11T08:42:49.372Z,3824.00
2018-08-11T08:43:49.375Z,3732.00
2018-08-11T08:44:49.380Z,3888.00
2018-08-11T08:45:49.383Z,4220.00
2018-08-11T08:46:49.390Z,4064.00
2018-08-11T08:47:49.392Z,4228.00
2018-08-11T08:48:49.395Z,4356.00
2018-08-11T08:49:49.405Z,3352.00
2018-08-11T08:50:49.404Z,3284.00
2018-08-11T08:51:49.409Z,3236.00
2018-08-11T08:52:49.411Z,2980.00
2018-08-11T08:53:49.416Z,3384.00
2018-08-11T08:54:49.422Z,3204.00
2018-08-11T08:55:49.423Z,3240.00
2018-08-11T08:56:49.426Z,3916.00
2018-08-11T08:57:49.432Z,4876.00
2018-08-11T08:58:49.435Z,12440.00
2018-08-11T08:59:49.452Z,3408.00
2018-08-11T09:00:49.444Z,3540.00
2018-08-11T09:01:49.448Z,28768.00
2018-08-11T09:02:49.452Z,4972.00
2018-08-11T09:03:49.456Z,5220.00
2018-08-11T09:04:49.468Z,31808.00
2018-08-11T09:05:49.472Z,30208.00
2018-08-11T09:06:49.954Z,32096.00
2018-08-11T09:07:49.475Z,32320.00
2018-08-11T09:08:49.478Z,31968.00
2018-08-11T09:09:49.484Z,33344.00
2018-08-11T09:10:49.488Z,5064.00
2018-08-11T09:11:49.498Z,5120.00
2018-08-11T09:12:49.500Z,4516.00
2018-08-11T09:13:49.510Z,3812.00
2018-08-11T09:14:49.518Z,3792.00
2018-08-11T09:15:49.519Z,34272.00
2018-08-11T09:16:49.523Z,11828.00
2018-08-11T09:17:49.531Z,35264.00
2018-08-11T09:18:49.536Z,21440.00
2018-08-11T09:19:49.559Z,27424.00
2018-08-11T09:20:49.548Z,33536.00
2018-08-11T09:21:49.557Z,32320.00
2018-08-11T09:22:49.562Z,33408.00
2018-08-11T09:23:49.573Z,34208.00
2018-08-11T09:24:49.579Z,34400.00
2018-08-11T09:25:49.586Z,36576.00
2018-08-11T09:26:49.592Z,35840.00
2018-08-11T09:27:49.598Z,34816.00
2018-08-11T09:28:49.608Z,25824.00
2018-08-11T09:29:49.612Z,16608.00
2018-08-11T09:30:49.666Z,7544.00
2018-08-11T09:31:49.630Z,4716.00
2018-08-11T09:32:49.637Z,6260.00
2018-08-11T09:33:49.644Z,6520.00
2018-08-11T09:34:49.658Z,4612.00
2018-08-11T09:35:49.659Z,3548.00
2018-08-11T09:36:49.667Z,4528.00
2018-08-11T09:37:50.348Z,4612.00
2018-08-11T09:38:49.733Z,4888.00
2018-08-11T09:39:49.691Z,5364.00
2018-08-11T09:40:49.700Z,6156.00
2018-08-11T09:41:49.709Z,4740.00
2018-08-11T09:42:49.713Z,5068.00
2018-08-11T09:43:49.722Z,7148.00
2018-08-11T09:44:49.727Z,5916.00
2018-08-11T09:45:49.833Z,5032.00
2018-08-11T09:46:49.741Z,4068.00
2018-08-11T09:47:49.752Z,3776.00
2018-08-11T09:48:49.754Z,3048.00
2018-08-11T09:49:49.761Z,2988.00
2018-08-11T09:50:49.767Z,2668.00
2018-08-11T09:51:49.796Z,2484.00
2018-08-11T09:52:49.782Z,2416.00
2018-08-11T09:53:49.795Z,2096.00
2018-08-11T09:54:49.792Z,1868.00
2018-08-11T09:55:49.800Z,1780.00
2018-08-11T09:56:49.804Z,1756.00
2018-08-11T09:57:49.810Z,1932.00
2018-08-11T09:58:49.863Z,2728.00
2018-08-11T09:59:49.821Z,3252.00
2018-08-11T10:00:49.826Z,3088.00
2018-08-11T10:01:49.832Z,2920.00
2018-08-11T10:02:49.852Z,2728.00
2018-08-11T10:03:49.844Z,3104.00
2018-08-11T10:04:49.850Z,3732.00
2018-08-11T10:05:49.855Z,4144.00
2018-08-11T10:06:49.861Z,4336.00
2018-08-11T10:07:49.870Z,4360.00
2018-08-11T10:08:50.817Z,3844.00
2018-08-11T10:09:49.878Z,4188.00
2018-08-11T10:10:49.881Z,4028.00
2018-08-11T10:11:49.887Z,4224.00
2018-08-11T10:12:49.889Z,4232.00
2018-08-11T10:13:49.896Z,4776.00
2018-08-11T10:14:49.900Z,5548.00
2018-08-11T10:15:49.912Z,6196.00
2018-08-11T10:16:49.913Z,4456.00
2018-08-11T10:17:49.972Z,5108.00
2018-08-11T10:18:49.994Z,3468.00
2018-08-11T10:19:49.928Z,3720.00
2018-08-11T10:20:49.930Z,3988.00
2018-08-11T10:21:49.936Z,4096.00
2018-08-11T10:22:49.941Z,4580.00
2018-08-11T10:23:49.945Z,5624.00
2018-08-11T10:24:50.017Z,4608.00
2018-08-11T10:25:49.955Z,4872.00
2018-08-11T10:26:50.062Z,5596.00
2018-08-11T10:27:49.969Z,5376.00
2018-08-11T10:28:49.971Z,6900.00
2018-08-11T10:29:49.977Z,6092.00
2018-08-11T10:30:49.983Z,4916.00
2018-08-11T10:31:49.986Z,5444.00
2018-08-11T10:32:49.991Z,3588.00
2018-08-11T10:33:49.998Z,4536.00
2018-08-11T10:34:50.059Z,3948.00
2018-08-11T10:35:50.033Z,19808.00
2018-08-11T10:36:50.070Z,50688.00
2018-08-11T10:37:50.083Z,63872.00
2018-08-11T10:38:50.027Z,63168.00
2018-08-11T10:39:50.229Z,61632.00
2018-08-11T10:40:50.038Z,60608.00
2018-08-11T10:41:50.044Z,60256.00
2018-08-11T10:42:50.044Z,60416.00
2018-08-11T10:43:50.055Z,59008.00
2018-08-11T10:44:50.063Z,59168.00
2018-08-11T10:45:50.069Z,58336.00
2018-08-11T10:46:50.075Z,57792.00
2018-08-11T10:47:50.082Z,57376.00
2018-08-11T10:48:50.090Z,57088.00
2018-08-11T10:49:50.096Z,57440.00
2018-08-11T10:50:50.114Z,57728.00
2018-08-11T10:51:50.119Z,58848.00
2018-08-11T10:52:50.163Z,62080.00
2018-08-11T10:53:50.133Z,63680.00
2018-08-11T10:54:50.144Z,8848.00
2018-08-11T10:55:50.209Z,65216.00
2018-08-11T10:56:51.117Z,52224.00
2018-08-11T10:57:50.188Z,52192.00
2018-08-11T10:58:50.197Z,60544.00
2018-08-11T10:59:50.195Z,64864.00
2018-08-11T11:00:50.212Z,65152.00
2018-08-11T11:01:50.240Z,4460.00
2018-08-11T11:02:50.237Z,2968.00
2018-08-11T11:03:50.239Z,2400.00
2018-08-11T11:04:50.301Z,2276.00
2018-08-11T11:05:50.355Z,2424.00
2018-08-11T11:06:50.269Z,2956.00
2018-08-11T11:07:50.384Z,3164.00
2018-08-11T11:08:50.287Z,12020.00
2018-08-11T11:09:50.296Z,61920.00
2018-08-11T11:10:50.311Z,58784.00
2018-08-11T11:11:50.314Z,60480.00
2018-08-11T11:12:50.323Z,63680.00
2018-08-11T11:13:50.346Z,65056.00
2018-08-11T11:14:50.344Z,61632.00
2018-08-11T11:15:50.353Z,60864.00
2018-08-11T11:16:50.410Z,62080.00
2018-08-11T11:17:50.370Z,63616.00
2018-08-11T11:18:50.381Z,60768.00
2018-08-11T11:19:50.390Z,51712.00
2018-08-11T11:20:50.436Z,42048.00
2018-08-11T11:21:50.468Z,31488.00
2018-08-11T11:22:50.428Z,17696.00
2018-08-11T11:23:50.441Z,14276.00
2018-08-11T11:24:50.467Z,7904.00
2018-08-11T11:25:50.550Z,7752.00
2018-08-11T11:26:50.467Z,6004.00
2018-08-11T11:27:50.482Z,8220.00
2018-08-11T11:28:50.489Z,5720.00
2018-08-11T11:29:50.500Z,6268.00
2018-08-11T11:30:50.510Z,6752.00
2018-08-11T11:31:50.525Z,5084.00
2018-08-11T11:32:50.531Z,3348.00
2018-08-11T11:33:50.544Z,2888.00
2018-08-11T11:34:50.547Z,2820.00
2018-08-11T11:35:50.557Z,3788.00
2018-08-11T11:36:50.566Z,3632.00
2018-08-11T11:37:53.195Z,3400.00
2018-08-11T11:38:50.588Z,3196.00
2018-08-11T11:39:50.596Z,3396.00
2018-08-11T11:40:50.610Z,3724.00
2018-08-11T11:41:50.608Z,3608.00
2018-08-11T11:42:50.616Z,3036.00
2018-08-11T11:43:50.627Z,2832.00
2018-08-11T11:44:50.634Z,5180.00
2018-08-11T11:45:50.643Z,4928.00
2018-08-11T11:46:50.652Z,5884.00
2018-08-11T11:47:50.654Z,4884.00
2018-08-11T11:48:50.667Z,3832.00
2018-08-11T11:49:50.670Z,3460.00
2018-08-11T11:50:50.675Z,3412.00
2018-08-11T11:51:50.686Z,3404.00
2018-08-11T11:52:50.691Z,3400.00
2018-08-11T11:53:50.704Z,3584.00
2018-08-11T11:54:50.708Z,3608.00
2018-08-11T11:55:50.708Z,3556.00
2018-08-11T11:56:50.720Z,3600.00
2018-08-11T11:57:50.720Z,3900.00
2018-08-11T11:58:50.729Z,4172.00
2018-08-11T11:59:50.788Z,5972.00
2018-08-11T12:00:50.747Z,4448.00
2018-08-11T12:01:50.755Z,3648.00
2018-08-11T12:02:50.759Z,5312.00
2018-08-11T12:03:50.761Z,3644.00
2018-08-11T12:04:50.766Z,4620.00
2018-08-11T12:05:50.842Z,3668.00
2018-08-11T12:06:50.780Z,3960.00
2018-08-11T12:07:50.786Z,3344.00
2018-08-11T12:08:50.826Z,2996.00
2018-08-11T12:09:50.799Z,2968.00
2018-08-11T12:10:50.800Z,2996.00
2018-08-11T12:11:50.805Z,3148.00
2018-08-11T12:12:50.814Z,2996.00
2018-08-11T12:13:50.823Z,3456.00
2018-08-11T12:14:51.209Z,4320.00
2018-08-11T12:15:50.830Z,3900.00
2018-08-11T12:16:50.835Z,4092.00
2018-08-11T12:17:50.852Z,4108.00
2018-08-11T12:18:50.849Z,3944.00
2018-08-11T12:19:50.852Z,4172.00
2018-08-11T12:20:50.888Z,4284.00
2018-08-11T12:21:50.864Z,4596.00
2018-08-11T12:22:50.869Z,3812.00
2018-08-11T12:23:50.876Z,3532.00
2018-08-11T12:24:50.881Z,4976.00
2018-08-11T12:25:50.887Z,4992.00
2018-08-11T12:26:50.894Z,4120.00